sensor_id;sensor_type;location;lat;lon;timestamp;temperature;humidity
19389;DHT22;9830;41.876;23.474;2022-08-21T00:00:10;16.00;99.90
19389;DHT22;9830;41.876;23.474;2022-08-21T00:02:36;16.10;99.90
19389;DHT22;9830;41.876;23.474;2022-08-21T00:05:03;15.90;99.90
19389;DHT22;9830;41.876;23.474;2022-08-21T00:07:29;16.00;99.90
19389;DHT22;9830;41.876;23.474;2022-08-21T00:09:55;16.00;99.90
19389;DHT22;9830;41.876;23.474;2022-08-21T00:12:21;16.00;99.90
19389;DHT22;9830;41.876;23.474;2022-08-21T00:14:47;16.10;99.90
19389;DHT22;9830;41.876;23.474;2022-08-21T00:17:12;16.20;99.90
19389;DHT22;9830;41.876;23.474;2022-08-21T00:19:38;16.20;99.90
19389;DHT22;9830;41.876;23.474;2022-08-21T00:22:04;16.30;99.90
19389;DHT22;9830;41.876;23.474;2022-08-21T00:24:30;16.40;99.90
19389;DHT22;9830;41.876;23.474;2022-08-21T00:26:55;16.50;99.90
19389;DHT22;9830;41.876;23.474;2022-08-21T00:29:21;16.40;99.90
19389;DHT22;9830;41.876;23.474;2022-08-21T00:31:47;16.30;99.90
19389;DHT22;9830;41.876;23.474;2022-08-21T00:34:13;16.50;99.90
19389;DHT22;9830;41.876;23.474;2022-08-21T00:36:39;16.60;99.90
19389;DHT22;9830;41.876;23.474;2022-08-21T00:39:06;16.50;99.90
19389;DHT22;9830;41.876;23.474;2022-08-21T00:41:34;16.40;99.90
19389;DHT22;9830;41.876;23.474;2022-08-21T00:44:01;16.20;99.90
19389;DHT22;9830;41.876;23.474;2022-08-21T00:46:27;16.30;99.90
19389;DHT22;9830;41.876;23.474;2022-08-21T00:48:53;16.30;99.90
19389;DHT22;9830;41.876;23.474;2022-08-21T00:51:21;16.20;99.90
19389;DHT22;9830;41.876;23.474;2022-08-21T00:53:54;16.30;99.90
19389;DHT22;9830;41.876;23.474;2022-08-21T00:56:21;16.30;99.90
19389;DHT22;9830;41.876;23.474;2022-08-21T00:58:48;16.30;99.90
19389;DHT22;9830;41.876;23.474;2022-08-21T01:01:15;16.40;99.90
19389;DHT22;9830;41.876;23.474;2022-08-21T01:03:41;16.50;99.90
19389;DHT22;9830;41.876;23.474;2022-08-21T01:06:07;16.60;99.90
19389;DHT22;9830;41.876;23.474;2022-08-21T01:08:33;16.60;99.90
19389;DHT22;9830;41.876;23.474;2022-08-21T01:11:01;16.70;99.90
19389;DHT22;9830;41.876;23.474;2022-08-21T01:13:29;16.70;99.90
19389;DHT22;9830;41.876;23.474;2022-08-21T01:15:57;16.50;99.90
19389;DHT22;9830;41.876;23.474;2022-08-21T01:18:26;16.40;99.90
19389;DHT22;9830;41.876;23.474;2022-08-21T01:23:32;16.40;99.90
19389;DHT22;9830;41.876;23.474;2022-08-21T01:25:58;16.30;99.90
19389;DHT22;9830;41.876;23.474;2022-08-21T01:28:24;16.40;99.90
19389;DHT22;9830;41.876;23.474;2022-08-21T01:30:51;16.50;99.90
19389;DHT22;9830;41.876;23.474;2022-08-21T01:33:22;16.50;99.90
19389;DHT22;9830;41.876;23.474;2022-08-21T01:35:49;16.40;99.90
19389;DHT22;9830;41.876;23.474;2022-08-21T01:38:15;16.50;99.90
19389;DHT22;9830;41.876;23.474;2022-08-21T01:40:41;16.50;99.90
19389;DHT22;9830;41.876;23.474;2022-08-21T01:43:07;16.60;99.90
19389;DHT22;9830;41.876;23.474;2022-08-21T01:45:33;16.60;99.90
19389;DHT22;9830;41.876;23.474;2022-08-21T01:47:59;16.60;99.90
19389;DHT22;9830;41.876;23.474;2022-08-21T01:50:24;16.50;99.90
19389;DHT22;9830;41.876;23.474;2022-08-21T01:52:50;16.50;99.90
19389;DHT22;9830;41.876;23.474;2022-08-21T01:55:17;16.50;99.90
19389;DHT22;9830;41.876;23.474;2022-08-21T01:57:44;16.60;99.90
19389;DHT22;9830;41.876;23.474;2022-08-21T02:00:13;16.60;99.90
19389;DHT22;9830;41.876;23.474;2022-08-21T02:02:40;16.70;99.90
19389;DHT22;9830;41.876;23.474;2022-08-21T02:05:07;16.60;99.90
19389;DHT22;9830;41.876;23.474;2022-08-21T02:07:43;16.60;99.90
19389;DHT22;9830;41.876;23.474;2022-08-21T02:10:11;16.60;99.90
19389;DHT22;9830;41.876;23.474;2022-08-21T02:12:37;16.60;99.90
19389;DHT22;9830;41.876;23.474;2022-08-21T02:15:04;16.60;99.90
19389;DHT22;9830;41.876;23.474;2022-08-21T02:17:44;16.70;99.90
19389;DHT22;9830;41.876;23.474;2022-08-21T02:20:16;16.70;99.90
19389;DHT22;9830;41.876;23.474;2022-08-21T02:22:42;16.70;99.90
19389;DHT22;9830;41.876;23.474;2022-08-21T02:25:08;16.70;99.90
19389;DHT22;9830;41.876;23.474;2022-08-21T02:27:41;16.60;99.90
19389;DHT22;9830;41.876;23.474;2022-08-21T02:30:14;16.70;99.90
19389;DHT22;9830;41.876;23.474;2022-08-21T02:32:40;16.70;99.90
19389;DHT22;9830;41.876;23.474;2022-08-21T02:35:07;16.60;99.90
19389;DHT22;9830;41.876;23.474;2022-08-21T02:37:32;16.60;99.90
19389;DHT22;9830;41.876;23.474;2022-08-21T02:40:00;16.60;99.90
19389;DHT22;9830;41.876;23.474;2022-08-21T02:42:26;16.60;99.90
19389;DHT22;9830;41.876;23.474;2022-08-21T02:44:52;16.60;99.90
19389;DHT22;9830;41.876;23.474;2022-08-21T02:47:17;16.60;99.90
19389;DHT22;9830;41.876;23.474;2022-08-21T02:49:43;16.50;99.90
19389;DHT22;9830;41.876;23.474;2022-08-21T02:52:09;16.60;99.90
19389;DHT22;9830;41.876;23.474;2022-08-21T02:54:35;16.60;99.90
19389;DHT22;9830;41.876;23.474;2022-08-21T02:57:00;16.60;99.90
19389;DHT22;9830;41.876;23.474;2022-08-21T02:59:26;16.60;99.90
19389;DHT22;9830;41.876;23.474;2022-08-21T03:01:52;16.50;99.90
19389;DHT22;9830;41.876;23.474;2022-08-21T03:04:17;16.50;99.90
19389;DHT22;9830;41.876;23.474;2022-08-21T03:06:43;16.50;99.90
19389;DHT22;9830;41.876;23.474;2022-08-21T03:09:09;16.50;99.90
19389;DHT22;9830;41.876;23.474;2022-08-21T03:11:35;16.60;99.90
19389;DHT22;9830;41.876;23.474;2022-08-21T03:14:01;16.60;99.90
19389;DHT22;9830;41.876;23.474;2022-08-21T03:16:27;16.60;99.90
19389;DHT22;9830;41.876;23.474;2022-08-21T03:18:53;16.50;99.90
19389;DHT22;9830;41.876;23.474;2022-08-21T03:21:19;16.50;99.90
19389;DHT22;9830;41.876;23.474;2022-08-21T03:23:44;16.50;99.90
19389;DHT22;9830;41.876;23.474;2022-08-21T03:26:11;16.60;99.90
19389;DHT22;9830;41.876;23.474;2022-08-21T03:28:36;16.70;99.90
19389;DHT22;9830;41.876;23.474;2022-08-21T03:31:02;16.70;99.90
19389;DHT22;9830;41.876;23.474;2022-08-21T03:33:28;16.60;99.90
19389;DHT22;9830;41.876;23.474;2022-08-21T03:36:00;16.50;99.90
19389;DHT22;9830;41.876;23.474;2022-08-21T03:38:28;16.40;99.90
19389;DHT22;9830;41.876;23.474;2022-08-21T03:40:54;16.60;99.90
19389;DHT22;9830;41.876;23.474;2022-08-21T03:43:20;16.70;99.90
19389;DHT22;9830;41.876;23.474;2022-08-21T03:45:46;16.60;99.90
19389;DHT22;9830;41.876;23.474;2022-08-21T03:48:12;16.50;99.90
19389;DHT22;9830;41.876;23.474;2022-08-21T03:50:40;16.50;99.90
19389;DHT22;9830;41.876;23.474;2022-08-21T03:53:10;16.50;99.90
19389;DHT22;9830;41.876;23.474;2022-08-21T03:55:36;16.50;99.90
19389;DHT22;9830;41.876;23.474;2022-08-21T03:58:03;16.50;99.90
19389;DHT22;9830;41.876;23.474;2022-08-21T04:00:29;16.50;99.90
19389;DHT22;9830;41.876;23.474;2022-08-21T04:02:55;16.40;99.90
19389;DHT22;9830;41.876;23.474;2022-08-21T04:05:20;16.60;99.90
19389;DHT22;9830;41.876;23.474;2022-08-21T04:07:57;16.50;99.90
19389;DHT22;9830;41.876;23.474;2022-08-21T04:10:24;16.40;99.90
19389;DHT22;9830;41.876;23.474;2022-08-21T04:12:50;16.50;99.90
19389;DHT22;9830;41.876;23.474;2022-08-21T04:15:16;16.50;99.90
19389;DHT22;9830;41.876;23.474;2022-08-21T04:17:42;16.50;99.90
19389;DHT22;9830;41.876;23.474;2022-08-21T04:20:08;16.50;99.90
19389;DHT22;9830;41.876;23.474;2022-08-21T04:22:34;16.50;99.90
19389;DHT22;9830;41.876;23.474;2022-08-21T04:25:00;16.50;99.90
19389;DHT22;9830;41.876;23.474;2022-08-21T04:27:25;16.50;99.90
19389;DHT22;9830;41.876;23.474;2022-08-21T04:29:51;16.50;99.90
19389;DHT22;9830;41.876;23.474;2022-08-21T04:32:24;16.60;99.90
19389;DHT22;9830;41.876;23.474;2022-08-21T04:34:50;16.50;99.90
19389;DHT22;9830;41.876;23.474;2022-08-21T04:37:16;16.50;99.90
19389;DHT22;9830;41.876;23.474;2022-08-21T04:39:42;16.40;99.90
19389;DHT22;9830;41.876;23.474;2022-08-21T04:42:08;16.40;99.90
19389;DHT22;9830;41.876;23.474;2022-08-21T04:44:34;16.60;99.90
19389;DHT22;9830;41.876;23.474;2022-08-21T04:47:00;16.70;99.90
19389;DHT22;9830;41.876;23.474;2022-08-21T04:49:26;16.60;99.90
19389;DHT22;9830;41.876;23.474;2022-08-21T04:51:52;16.60;99.90
19389;DHT22;9830;41.876;23.474;2022-08-21T04:54:20;16.60;99.90
19389;DHT22;9830;41.876;23.474;2022-08-21T04:56:59;16.60;99.90
19389;DHT22;9830;41.876;23.474;2022-08-21T05:02:13;16.70;99.90
19389;DHT22;9830;41.876;23.474;2022-08-21T05:04:45;16.80;99.90
19389;DHT22;9830;41.876;23.474;2022-08-21T05:07:16;16.80;99.90
19389;DHT22;9830;41.876;23.474;2022-08-21T05:09:43;16.80;99.90
19389;DHT22;9830;41.876;23.474;2022-08-21T05:12:09;17.00;99.90
19389;DHT22;9830;41.876;23.474;2022-08-21T05:14:36;17.10;99.90
19389;DHT22;9830;41.876;23.474;2022-08-21T05:17:02;17.10;99.90
19389;DHT22;9830;41.876;23.474;2022-08-21T05:19:27;17.10;99.90
19389;DHT22;9830;41.876;23.474;2022-08-21T05:21:53;17.10;99.90
19389;DHT22;9830;41.876;23.474;2022-08-21T05:24:19;17.40;99.90
19389;DHT22;9830;41.876;23.474;2022-08-21T05:26:46;17.30;99.90
19389;DHT22;9830;41.876;23.474;2022-08-21T05:29:13;17.20;99.90
19389;DHT22;9830;41.876;23.474;2022-08-21T05:31:39;17.10;99.90
19389;DHT22;9830;41.876;23.474;2022-08-21T05:34:04;17.00;99.90
19389;DHT22;9830;41.876;23.474;2022-08-21T05:36:30;16.90;99.90
19389;DHT22;9830;41.876;23.474;2022-08-21T05:38:56;16.90;99.90
19389;DHT22;9830;41.876;23.474;2022-08-21T05:41:22;16.90;99.90
19389;DHT22;9830;41.876;23.474;2022-08-21T05:43:48;16.90;99.90
19389;DHT22;9830;41.876;23.474;2022-08-21T05:46:14;16.90;99.90
19389;DHT22;9830;41.876;23.474;2022-08-21T05:48:39;16.90;99.90
19389;DHT22;9830;41.876;23.474;2022-08-21T05:51:08;16.90;99.90
19389;DHT22;9830;41.876;23.474;2022-08-21T05:53:35;17.00;99.90
19389;DHT22;9830;41.876;23.474;2022-08-21T05:56:01;17.10;99.90
19389;DHT22;9830;41.876;23.474;2022-08-21T05:58:29;17.10;99.90
19389;DHT22;9830;41.876;23.474;2022-08-21T06:00:56;17.20;99.90
19389;DHT22;9830;41.876;23.474;2022-08-21T06:03:42;17.50;99.90
19389;DHT22;9830;41.876;23.474;2022-08-21T06:06:08;17.60;99.90
19389;DHT22;9830;41.876;23.474;2022-08-21T06:08:35;17.50;99.90
19389;DHT22;9830;41.876;23.474;2022-08-21T06:11:01;17.70;99.90
19389;DHT22;9830;41.876;23.474;2022-08-21T06:13:28;17.80;99.90
19389;DHT22;9830;41.876;23.474;2022-08-21T06:16:13;18.00;99.90
19389;DHT22;9830;41.876;23.474;2022-08-21T06:18:39;18.40;99.90
19389;DHT22;9830;41.876;23.474;2022-08-21T06:21:06;18.60;99.90
19389;DHT22;9830;41.876;23.474;2022-08-21T06:23:33;18.70;99.90
19389;DHT22;9830;41.876;23.474;2022-08-21T06:26:00;18.50;99.90
19389;DHT22;9830;41.876;23.474;2022-08-21T06:28:26;18.60;99.90
19389;DHT22;9830;41.876;23.474;2022-08-21T06:30:52;18.70;99.90
19389;DHT22;9830;41.876;23.474;2022-08-21T06:33:17;18.60;99.90
19389;DHT22;9830;41.876;23.474;2022-08-21T06:35:43;18.50;99.90
19389;DHT22;9830;41.876;23.474;2022-08-21T06:38:09;18.50;99.90
19389;DHT22;9830;41.876;23.474;2022-08-21T06:40:35;18.50;99.90
19389;DHT22;9830;41.876;23.474;2022-08-21T06:43:12;18.50;99.90
19389;DHT22;9830;41.876;23.474;2022-08-21T06:45:38;18.50;99.90
19389;DHT22;9830;41.876;23.474;2022-08-21T06:48:05;18.60;99.90
19389;DHT22;9830;41.876;23.474;2022-08-21T06:50:33;18.60;99.90
19389;DHT22;9830;41.876;23.474;2022-08-21T06:53:01;18.90;99.90
19389;DHT22;9830;41.876;23.474;2022-08-21T06:55:27;19.60;99.90
19389;DHT22;9830;41.876;23.474;2022-08-21T06:57:53;20.50;99.90
19389;DHT22;9830;41.876;23.474;2022-08-21T07:00:19;21.50;99.90
19389;DHT22;9830;41.876;23.474;2022-08-21T07:02:44;22.30;98.20
19389;DHT22;9830;41.876;23.474;2022-08-21T07:05:10;22.30;98.70
19389;DHT22;9830;41.876;23.474;2022-08-21T07:07:36;22.70;96.80
19389;DHT22;9830;41.876;23.474;2022-08-21T07:10:02;23.40;96.10
19389;DHT22;9830;41.876;23.474;2022-08-21T07:12:27;23.40;93.40
19389;DHT22;9830;41.876;23.474;2022-08-21T07:14:53;24.00;92.90
19389;DHT22;9830;41.876;23.474;2022-08-21T07:17:19;23.80;93.30
19389;DHT22;9830;41.876;23.474;2022-08-21T07:19:44;23.30;93.10
19389;DHT22;9830;41.876;23.474;2022-08-21T07:22:10;22.40;94.80
19389;DHT22;9830;41.876;23.474;2022-08-21T07:24:38;21.80;96.10
19389;DHT22;9830;41.876;23.474;2022-08-21T07:27:04;21.80;97.30
19389;DHT22;9830;41.876;23.474;2022-08-21T07:29:29;22.80;95.90
19389;DHT22;9830;41.876;23.474;2022-08-21T07:31:56;24.90;90.30
19389;DHT22;9830;41.876;23.474;2022-08-21T07:34:21;25.40;83.80
19389;DHT22;9830;41.876;23.474;2022-08-21T07:36:47;25.40;85.40
19389;DHT22;9830;41.876;23.474;2022-08-21T07:39:13;26.50;76.00
19389;DHT22;9830;41.876;23.474;2022-08-21T07:41:38;27.00;72.00
19389;DHT22;9830;41.876;23.474;2022-08-21T07:44:04;26.30;76.00
19389;DHT22;9830;41.876;23.474;2022-08-21T07:46:30;25.80;75.60
19389;DHT22;9830;41.876;23.474;2022-08-21T07:48:56;25.50;77.30
19389;DHT22;9830;41.876;23.474;2022-08-21T07:51:25;24.40;80.50
19389;DHT22;9830;41.876;23.474;2022-08-21T07:53:54;23.70;84.90
19389;DHT22;9830;41.876;23.474;2022-08-21T07:56:21;23.30;87.30
19389;DHT22;9830;41.876;23.474;2022-08-21T07:58:47;23.00;88.80
19389;DHT22;9830;41.876;23.474;2022-08-21T08:01:13;22.60;91.70
19389;DHT22;9830;41.876;23.474;2022-08-21T08:03:39;22.30;93.50
19389;DHT22;9830;41.876;23.474;2022-08-21T08:06:06;22.20;92.60
19389;DHT22;9830;41.876;23.474;2022-08-21T08:08:34;22.10;93.50
19389;DHT22;9830;41.876;23.474;2022-08-21T08:11:00;21.80;94.90
19389;DHT22;9830;41.876;23.474;2022-08-21T08:13:27;21.70;94.70
19389;DHT22;9830;41.876;23.474;2022-08-21T08:15:52;21.90;96.20
19389;DHT22;9830;41.876;23.474;2022-08-21T08:18:18;22.20;94.40
19389;DHT22;9830;41.876;23.474;2022-08-21T08:20:44;22.70;93.90
19389;DHT22;9830;41.876;23.474;2022-08-21T08:23:11;22.70;92.10
19389;DHT22;9830;41.876;23.474;2022-08-21T08:25:37;23.00;91.70
19389;DHT22;9830;41.876;23.474;2022-08-21T08:28:04;23.10;91.50
19389;DHT22;9830;41.876;23.474;2022-08-21T08:30:30;22.70;92.30
19389;DHT22;9830;41.876;23.474;2022-08-21T08:32:56;23.00;94.70
19389;DHT22;9830;41.876;23.474;2022-08-21T08:35:22;22.80;92.20
19389;DHT22;9830;41.876;23.474;2022-08-21T08:37:48;23.00;93.60
19389;DHT22;9830;41.876;23.474;2022-08-21T08:40:29;22.80;93.80
19389;DHT22;9830;41.876;23.474;2022-08-21T08:42:55;22.90;92.30
19389;DHT22;9830;41.876;23.474;2022-08-21T08:45:22;22.70;92.70
19389;DHT22;9830;41.876;23.474;2022-08-21T08:47:56;22.50;92.50
19389;DHT22;9830;41.876;23.474;2022-08-21T08:50:32;22.40;95.90
19389;DHT22;9830;41.876;23.474;2022-08-21T08:53:06;22.20;97.20
19389;DHT22;9830;41.876;23.474;2022-08-21T08:55:33;21.80;99.90
19389;DHT22;9830;41.876;23.474;2022-08-21T08:58:00;21.90;99.40
19389;DHT22;9830;41.876;23.474;2022-08-21T09:00:28;22.30;99.40
19389;DHT22;9830;41.876;23.474;2022-08-21T09:02:59;21.90;98.50
19389;DHT22;9830;41.876;23.474;2022-08-21T09:05:45;22.00;99.90
19389;DHT22;9830;41.876;23.474;2022-08-21T09:08:42;21.90;99.90
19389;DHT22;9830;41.876;23.474;2022-08-21T09:11:29;22.00;99.90
19389;DHT22;9830;41.876;23.474;2022-08-21T09:29:31;23.70;95.60
19389;DHT22;9830;41.876;23.474;2022-08-21T09:31:58;23.00;97.50
19389;DHT22;9830;41.876;23.474;2022-08-21T09:34:27;22.80;98.80
19389;DHT22;9830;41.876;23.474;2022-08-21T09:36:54;23.30;99.70
19389;DHT22;9830;41.876;23.474;2022-08-21T09:39:32;24.80;94.40
19389;DHT22;9830;41.876;23.474;2022-08-21T09:42:08;26.80;83.20
19389;DHT22;9830;41.876;23.474;2022-08-21T09:44:37;28.70;76.10
19389;DHT22;9830;41.876;23.474;2022-08-21T09:47:07;29.70;61.90
19389;DHT22;9830;41.876;23.474;2022-08-21T09:49:36;29.30;70.50
19389;DHT22;9830;41.876;23.474;2022-08-21T09:52:06;29.20;73.30
19389;DHT22;9830;41.876;23.474;2022-08-21T09:54:39;29.40;67.60
19389;DHT22;9830;41.876;23.474;2022-08-21T09:59:52;28.60;74.30
19389;DHT22;9830;41.876;23.474;2022-08-21T10:07:42;27.10;66.90
19389;DHT22;9830;41.876;23.474;2022-08-21T10:10:31;26.60;69.40
19389;DHT22;9830;41.876;23.474;2022-08-21T10:13:20;25.90;74.80
19389;DHT22;9830;41.876;23.474;2022-08-21T10:19:15;25.60;74.30
19389;DHT22;9830;41.876;23.474;2022-08-21T10:33:54;23.50;86.60
19389;DHT22;9830;41.876;23.474;2022-08-21T10:36:32;23.60;89.40
19389;DHT22;9830;41.876;23.474;2022-08-21T10:49:51;23.60;87.60
19389;DHT22;9830;41.876;23.474;2022-08-21T10:52:30;23.90;88.20
19389;DHT22;9830;41.876;23.474;2022-08-21T11:00:43;23.40;91.30
19389;DHT22;9830;41.876;23.474;2022-08-21T11:03:31;23.10;91.30
19389;DHT22;9830;41.876;23.474;2022-08-21T11:06:05;23.20;94.90
19389;DHT22;9830;41.876;23.474;2022-08-21T11:08:38;23.30;94.30
19389;DHT22;9830;41.876;23.474;2022-08-21T11:11:05;23.10;94.90
19389;DHT22;9830;41.876;23.474;2022-08-21T11:13:43;22.80;95.30
19389;DHT22;9830;41.876;23.474;2022-08-21T11:16:39;22.60;95.30
19389;DHT22;9830;41.876;23.474;2022-08-21T11:21:50;22.30;98.80
19389;DHT22;9830;41.876;23.474;2022-08-21T11:26:57;21.80;99.90
19389;DHT22;9830;41.876;23.474;2022-08-21T11:29:28;21.50;99.90
19389;DHT22;9830;41.876;23.474;2022-08-21T11:51:13;20.20;99.90
19389;DHT22;9830;41.876;23.474;2022-08-21T11:54:23;20.00;99.90
19389;DHT22;9830;41.876;23.474;2022-08-21T11:57:24;19.90;99.90
19389;DHT22;9830;41.876;23.474;2022-08-21T12:00:17;19.70;99.90
19389;DHT22;9830;41.876;23.474;2022-08-21T12:03:24;19.60;99.90
19389;DHT22;9830;41.876;23.474;2022-08-21T12:05:59;19.40;99.90
19389;DHT22;9830;41.876;23.474;2022-08-21T12:11:09;19.10;99.90
19389;DHT22;9830;41.876;23.474;2022-08-21T12:13:51;19.20;99.90
19389;DHT22;9830;41.876;23.474;2022-08-21T12:27:12;19.50;99.90
19389;DHT22;9830;41.876;23.474;2022-08-21T12:29:43;19.50;99.90
19389;DHT22;9830;41.876;23.474;2022-08-21T12:34:37;19.60;99.90
19389;DHT22;9830;41.876;23.474;2022-08-21T12:37:17;19.60;99.90
19389;DHT22;9830;41.876;23.474;2022-08-21T12:39:47;19.70;99.90
19389;DHT22;9830;41.876;23.474;2022-08-21T12:42:32;19.80;99.90
19389;DHT22;9830;41.876;23.474;2022-08-21T12:45:03;19.70;99.90
19389;DHT22;9830;41.876;23.474;2022-08-21T12:47:36;19.80;99.90
19389;DHT22;9830;41.876;23.474;2022-08-21T12:50:37;19.80;99.90
19389;DHT22;9830;41.876;23.474;2022-08-21T12:53:15;19.90;99.90
19389;DHT22;9830;41.876;23.474;2022-08-21T12:55:43;19.90;99.90
19389;DHT22;9830;41.876;23.474;2022-08-21T12:58:20;20.10;99.90
19389;DHT22;9830;41.876;23.474;2022-08-21T13:01:08;20.10;99.90
19389;DHT22;9830;41.876;23.474;2022-08-21T13:03:39;20.10;99.90
19389;DHT22;9830;41.876;23.474;2022-08-21T13:06:06;20.20;99.90
19389;DHT22;9830;41.876;23.474;2022-08-21T13:08:35;20.20;99.90
19389;DHT22;9830;41.876;23.474;2022-08-21T13:11:05;20.20;99.90
19389;DHT22;9830;41.876;23.474;2022-08-21T13:13:33;20.20;99.90
19389;DHT22;9830;41.876;23.474;2022-08-21T13:16:05;20.30;99.90
19389;DHT22;9830;41.876;23.474;2022-08-21T13:18:39;20.40;99.90
19389;DHT22;9830;41.876;23.474;2022-08-21T13:21:16;20.50;99.90
19389;DHT22;9830;41.876;23.474;2022-08-21T13:23:42;20.70;99.90
19389;DHT22;9830;41.876;23.474;2022-08-21T13:26:21;20.50;99.90
19389;DHT22;9830;41.876;23.474;2022-08-21T13:28:48;20.60;99.90
19389;DHT22;9830;41.876;23.474;2022-08-21T13:31:26;20.60;99.90
19389;DHT22;9830;41.876;23.474;2022-08-21T13:33:54;20.40;99.90
19389;DHT22;9830;41.876;23.474;2022-08-21T13:36:25;20.30;99.90
19389;DHT22;9830;41.876;23.474;2022-08-21T13:38:53;20.20;99.90
19389;DHT22;9830;41.876;23.474;2022-08-21T13:41:24;20.10;99.90
19389;DHT22;9830;41.876;23.474;2022-08-21T13:44:01;20.00;99.90
19389;DHT22;9830;41.876;23.474;2022-08-21T13:46:31;20.00;99.90
19389;DHT22;9830;41.876;23.474;2022-08-21T13:49:00;20.10;99.90
19389;DHT22;9830;41.876;23.474;2022-08-21T13:51:27;20.10;99.90
19389;DHT22;9830;41.876;23.474;2022-08-21T13:53:54;20.10;99.90
19389;DHT22;9830;41.876;23.474;2022-08-21T13:56:40;20.00;99.90
19389;DHT22;9830;41.876;23.474;2022-08-21T13:59:06;20.00;99.90
19389;DHT22;9830;41.876;23.474;2022-08-21T14:01:54;20.10;99.90
19389;DHT22;9830;41.876;23.474;2022-08-21T14:04:39;20.30;99.90
19389;DHT22;9830;41.876;23.474;2022-08-21T14:07:18;20.40;99.90
19389;DHT22;9830;41.876;23.474;2022-08-21T14:09:45;20.30;99.90
19389;DHT22;9830;41.876;23.474;2022-08-21T14:12:15;20.40;99.90
19389;DHT22;9830;41.876;23.474;2022-08-21T14:14:43;20.50;99.90
19389;DHT22;9830;41.876;23.474;2022-08-21T14:17:25;20.80;99.90
19389;DHT22;9830;41.876;23.474;2022-08-21T14:19:52;20.80;99.90
19389;DHT22;9830;41.876;23.474;2022-08-21T14:22:23;20.70;99.90
19389;DHT22;9830;41.876;23.474;2022-08-21T14:24:59;20.90;99.90
19389;DHT22;9830;41.876;23.474;2022-08-21T14:27:26;21.50;99.90
19389;DHT22;9830;41.876;23.474;2022-08-21T14:30:03;21.70;99.90
19389;DHT22;9830;41.876;23.474;2022-08-21T14:32:37;21.60;99.90
19389;DHT22;9830;41.876;23.474;2022-08-21T14:35:03;21.80;99.90
19389;DHT22;9830;41.876;23.474;2022-08-21T14:37:29;21.80;99.90
19389;DHT22;9830;41.876;23.474;2022-08-21T14:39:55;21.70;99.90
19389;DHT22;9830;41.876;23.474;2022-08-21T14:42:21;21.40;99.90
19389;DHT22;9830;41.876;23.474;2022-08-21T14:44:47;21.10;99.90
19389;DHT22;9830;41.876;23.474;2022-08-21T14:47:12;20.90;99.90
19389;DHT22;9830;41.876;23.474;2022-08-21T14:49:38;21.10;99.90
19389;DHT22;9830;41.876;23.474;2022-08-21T14:52:05;21.10;99.90
19389;DHT22;9830;41.876;23.474;2022-08-21T14:54:32;20.90;99.90
19389;DHT22;9830;41.876;23.474;2022-08-21T14:57:07;20.80;99.90
19389;DHT22;9830;41.876;23.474;2022-08-21T14:59:35;20.70;99.90
19389;DHT22;9830;41.876;23.474;2022-08-21T15:02:02;20.80;99.90
19389;DHT22;9830;41.876;23.474;2022-08-21T15:04:29;20.70;99.90
19389;DHT22;9830;41.876;23.474;2022-08-21T15:06:55;20.90;99.90
19389;DHT22;9830;41.876;23.474;2022-08-21T15:09:21;21.00;99.90
19389;DHT22;9830;41.876;23.474;2022-08-21T15:11:47;21.00;99.90
19389;DHT22;9830;41.876;23.474;2022-08-21T15:17:35;21.20;99.90
19389;DHT22;9830;41.876;23.474;2022-08-21T15:20:02;21.30;99.90
19389;DHT22;9830;41.876;23.474;2022-08-21T15:22:29;21.10;99.90
19389;DHT22;9830;41.876;23.474;2022-08-21T15:24:55;21.00;99.90
19389;DHT22;9830;41.876;23.474;2022-08-21T15:27:20;21.00;99.90
19389;DHT22;9830;41.876;23.474;2022-08-21T15:29:46;21.00;99.90
19389;DHT22;9830;41.876;23.474;2022-08-21T15:32:21;21.00;99.90
19389;DHT22;9830;41.876;23.474;2022-08-21T15:34:51;21.00;99.90
19389;DHT22;9830;41.876;23.474;2022-08-21T15:37:18;20.90;99.90
19389;DHT22;9830;41.876;23.474;2022-08-21T15:39:44;20.70;99.90
19389;DHT22;9830;41.876;23.474;2022-08-21T15:42:11;20.90;99.90
19389;DHT22;9830;41.876;23.474;2022-08-21T15:44:42;21.10;99.90
19389;DHT22;9830;41.876;23.474;2022-08-21T15:47:22;21.30;99.90
19389;DHT22;9830;41.876;23.474;2022-08-21T15:49:50;21.40;99.90
19389;DHT22;9830;41.876;23.474;2022-08-21T15:52:18;21.50;99.90
19389;DHT22;9830;41.876;23.474;2022-08-21T15:54:44;21.50;99.90
19389;DHT22;9830;41.876;23.474;2022-08-21T15:57:13;21.60;99.90
19389;DHT22;9830;41.876;23.474;2022-08-21T15:59:42;21.60;99.90
19389;DHT22;9830;41.876;23.474;2022-08-21T16:02:19;21.50;99.90
19389;DHT22;9830;41.876;23.474;2022-08-21T16:04:46;21.50;99.90
19389;DHT22;9830;41.876;23.474;2022-08-21T16:07:12;21.40;99.90
19389;DHT22;9830;41.876;23.474;2022-08-21T16:09:38;21.40;99.90
19389;DHT22;9830;41.876;23.474;2022-08-21T16:12:05;21.10;99.90
19389;DHT22;9830;41.876;23.474;2022-08-21T16:14:32;20.90;99.90
19389;DHT22;9830;41.876;23.474;2022-08-21T16:16:59;20.60;99.90
19389;DHT22;9830;41.876;23.474;2022-08-21T16:19:27;20.30;99.90
19389;DHT22;9830;41.876;23.474;2022-08-21T16:21:53;20.20;99.90
19389;DHT22;9830;41.876;23.474;2022-08-21T16:24:19;20.10;99.90
19389;DHT22;9830;41.876;23.474;2022-08-21T16:26:45;20.00;99.90
19389;DHT22;9830;41.876;23.474;2022-08-21T16:29:11;19.90;99.90
19389;DHT22;9830;41.876;23.474;2022-08-21T16:31:37;19.80;99.90
19389;DHT22;9830;41.876;23.474;2022-08-21T16:34:03;19.60;99.90
19389;DHT22;9830;41.876;23.474;2022-08-21T16:36:29;19.60;99.90
19389;DHT22;9830;41.876;23.474;2022-08-21T16:38:55;19.50;99.90
19389;DHT22;9830;41.876;23.474;2022-08-21T16:41:23;19.40;99.90
19389;DHT22;9830;41.876;23.474;2022-08-21T16:43:51;19.40;99.90
19389;DHT22;9830;41.876;23.474;2022-08-21T16:46:18;19.30;99.90
19389;DHT22;9830;41.876;23.474;2022-08-21T16:48:45;19.20;99.90
19389;DHT22;9830;41.876;23.474;2022-08-21T16:51:12;19.00;99.90
19389;DHT22;9830;41.876;23.474;2022-08-21T16:53:37;18.90;99.90
19389;DHT22;9830;41.876;23.474;2022-08-21T16:56:04;19.00;99.90
19389;DHT22;9830;41.876;23.474;2022-08-21T16:58:36;19.00;99.90
19389;DHT22;9830;41.876;23.474;2022-08-21T17:01:06;18.90;99.90
19389;DHT22;9830;41.876;23.474;2022-08-21T17:03:37;18.60;99.90
19389;DHT22;9830;41.876;23.474;2022-08-21T17:06:04;18.50;99.90
19389;DHT22;9830;41.876;23.474;2022-08-21T17:08:30;18.40;99.90
19389;DHT22;9830;41.876;23.474;2022-08-21T17:10:57;18.30;99.90
19389;DHT22;9830;41.876;23.474;2022-08-21T17:13:24;18.20;99.90
19389;DHT22;9830;41.876;23.474;2022-08-21T17:15:50;18.10;99.90
19389;DHT22;9830;41.876;23.474;2022-08-21T17:18:20;18.10;99.90
19389;DHT22;9830;41.876;23.474;2022-08-21T17:20:46;18.10;99.90
19389;DHT22;9830;41.876;23.474;2022-08-21T17:23:13;18.10;99.90
19389;DHT22;9830;41.876;23.474;2022-08-21T17:25:42;18.10;99.90